Weather observations for the past three days for
South Hill, Mecklenburg-Brunswick Regional Airport
Metric (Imperial)
Date Time (edt) Wind (kph) Vis. (km) Weather Sky Cond. Temperature (ºC) Relative Humidity Wind Chill (°C) Heat Index (°C) Pressure Precipitation (cm)
Air Dwpt 6 hour altimeter (cm) sea level (mb) 1 hr 3 hr 6 hr
Max. Min.
02 13:15 Calm 16.09 Fair CLR 35.6 20.5 41% 39 76.5 0.0
02 12:55 NW 6 16.09 Fair CLR 35.8 21 42% 39 76.5 0.0
02 12:35 N 17 16.09 Fair CLR 35.7 20.7 42% 39 76.5 0.0
02 12:15 NE 6 16.09 Fair CLR 35.8 20.7 41% 39 76.53 0.0
02 11:55 N 6 16.09 Fair CLR 34.6 21.3 46% 38 76.56 0.0
02 11:35 Calm 16.09 Fair CLR 34.1 21.9 49% 38 76.56 0.0
02 11:15 N 7 16.09 Fair CLR 33.8 21.8 49% 38 76.56 0.0
02 10:55 NE 7 16.09 Fair CLR 32.9 21.2 50% 36 76.56 0.0
02 10:35 N 7 16.09 Fair CLR 32.8 21.6 52% 36 76.56 0.0
02 10:15 NE 6 16.09 Fair CLR 31.9 21.4 54% 35 76.53 0.0
02 09:55 N 9 16.09 Fair CLR 31.5 21.6 56% 35 76.53 0.0
02 09:35 NE 6 16.09 Fair CLR 30.4 21.5 59% 33 76.53 0.0
02 09:15 NE 6 16.09 Fair CLR 30.1 21.7 61% 33 76.53 0.0
02 08:55 N 7 16.09 Fair CLR 29.3 22 65% 32 76.53 0.0
02 08:35 N 6 16.09 Fair CLR 28.3 21.9 68% 31 76.56 0.0
02 08:15 Calm 16.09 Fair CLR 27 21.7 73% 29 76.53 0.0
02 07:55 N 6 16.09 Fair CLR 25.4 21.9 25.7 22 81% 27 76.53 0.0
02 07:35 N 7 16.09 Fair CLR 24.5 21.6 84% 25 76.53 0.0
02 07:15 N 7 16.09 Fair CLR 23.1 21.9 93% 76.53 0.0
02 06:55 Calm 16.09 Fair CLR 22 21.5 97% 76.5 0.0
02 06:35 Calm 16.09 Fair CLR 22.1 21.5 96% 76.48 0.0
02 06:15 Calm 16.09 Fair CLR 22.2 21.4 95% 76.48 0.0
02 05:55 Calm 16.09 Fair CLR 24 21.2 84% 24 76.45 0.0
02 05:35 Calm 16.09 Fair CLR 22.8 21.6 93% 76.45 0.0
02 05:15 Calm 16.09 Fair CLR 22.6 21.6 94% 76.45 0.0
02 04:55 N 6 16.09 Fair CLR 24 21.5 86% 24 76.45 0.0
02 04:35 Calm 16.09 Fair CLR 22.7 21.9 95% 76.45 0.0
02 04:15 Calm 16.09 Fair CLR 23.6 21.6 89% 76.43 0.0
02 03:55 Calm 16.09 Fair CLR 23.4 22 92% 76.43 0.0
02 03:35 Calm 16.09 Fair CLR 23.2 21.7 91% 76.43 0.0
02 03:15 Calm 16.09 Fair CLR 23.5 21.9 91% 76.43 0.0
02 02:55 Calm 16.09 Fair CLR 24.7 21.8 84% 25 76.43 0.0
02 02:35 Calm 16.09 Fair CLR 25.5 22 81% 27 76.43 0.0
02 02:15 Calm 16.09 Fair CLR 25.1 22.1 84% 26 76.45 0.0
02 01:55 Calm 16.09 Fair CLR 24.4 22.2 29.5 23.8 88% 25 76.45 0.0
02 01:35 Calm 16.09 Fair CLR 24 21.9 88% 24 76.45 0.0
02 01:15 Calm 16.09 Fair CLR 24.7 21.9 84% 25 76.45 0.0
02 00:55 Calm 16.09 Fair CLR 24.6 21.8 84% 25 76.43 0.0
02 00:35 Calm 16.09 Fair CLR 24.1 21.8 87% 24 76.43 0.0
02 00:15 Calm 16.09 Fair CLR 24.2 21.7 86% 24 76.4 0.0
01 23:55 Calm 16.09 Fair CLR 24.7 21.8 84% 25 76.4 0.0
01 23:35 Calm 16.09 Fair CLR 24.8 22 84% 25 76.4 0.0
01 23:15 Calm 16.09 Fair CLR 25 22 83% 26 76.4 0.0
01 22:55 Calm 16.09 Fair CLR 25.5 22.2 82% 27 76.4 0.0
01 22:35 Calm 16.09 Fair CLR 25.9 22 79% 27 76.4 0.0
01 22:15 Calm 16.09 Fair CLR 27.5 21.5 70% 30 76.4 0.0
01 21:55 Calm 16.09 Fair CLR 25.9 22.1 80% 27 76.38 0.0
01 21:35 Calm 16.09 Fair CLR 26.2 22.1 78% 28 76.38 0.0
01 21:15 Calm 16.09 Fair CLR 26.4 22.1 77% 28 76.35 0.0
01 20:55 Calm 16.09 Fair CLR 27.4 22.3 74% 30 76.33 0.0
01 20:35 Calm 16.09 Fair CLR 27.4 22.3 74% 30 76.33 0.0
01 20:15 Calm 16.09 Fair CLR 28.4 22.5 70% 32 76.33 0.0
01 19:55 Calm 16.09 Fair CLR 29.5 22 36.7 29.5 64% 33 76.33 0.0
01 19:35 Calm 16.09 Fair CLR 31 22.2 59% 35 76.33 0.0
01 19:15 S 6 16.09 Fair CLR 32 21.8 55% 36 76.33 0.0
01 18:55 Calm 16.09 Fair CLR 34.5 20.1 43% 37 76.35 0.0
01 18:35 Calm 16.09 Fair CLR 35 20 41% 38 76.35 0.0
01 18:15 N 9 16.09 Fair CLR 35.2 19.8 40% 38 76.35 0.0
01 17:55 N 9 16.09 Fair CLR 35.7 19.7 39% 38 76.35 0.0
01 17:35 N 6 16.09 Fair CLR 35.7 19.6 39% 38 76.35 0.0
01 17:15 N 6 16.09 Fair CLR 36.1 20 39% 39 76.35 0.0
01 16:55 NW 6 16.09 Fair CLR 35.9 19.9 39% 39 76.38 0.0
01 16:35 W 9 16.09 Fair CLR 36 19.7 38% 39 76.38 0.0
01 16:15 N 13 16.09 Fair CLR 36.3 19.9 38% 39 76.38 0.0
01 15:55 N 17 16.09 Partly Cloudy SCT070 36.1 19.6 38% 39 76.38 0.0
01 15:35 W 11 16.09 Partly Cloudy SCT070 36.5 19.2 36% 39 76.4 0.0
01 15:15 NW 9 16.09 Fair CLR 36.6 19.5 37% 39 76.4 0.0
01 14:55 NE 9 16.09 Fair CLR 35.5 19.3 38% 38 76.43 0.0
01 14:35 W 9 16.09 Partly Cloudy SCT060 36.7 19.5 36% 39 76.43 0.0
01 14:15 NW 7 16.09 Partly Cloudy SCT060 36.1 18.8 36% 38 76.43 0.0
01 13:55 Calm 16.09 Partly Cloudy SCT060 35.4 20.2 35.9 22.8 41% 38 76.45 0.0
01 13:35 NW 6 16.09 Fair CLR 35.7 19 37% 38 76.45 0.0
01 13:15 Calm 16.09 Fair CLR 35.1 19 39% 37 76.45 0.0
01 12:55 NW 7 16.09 Fair CLR 35.1 20.5 42% 38 76.48 0.0
01 12:35 N 9 16.09 Fair CLR 34.7 21.1 45% 38 76.5 0.0
01 12:15 N 11 16.09 Fair CLR 33.8 21.4 48% 37 76.5 0.0
01 11:55 NW 6 16.09 Fair CLR 33.7 21.2 48% 37 76.53 0.0
01 11:35 NW 6 16.09 Fair CLR 33.6 21.7 50% 37 76.56 0.0
01 11:15 W 9 16.09 Fair CLR 32.7 22 53% 37 76.56 0.0
01 10:55 NW 6 16.09 Fair CLR 32.4 22.4 56% 37 76.56 0.0
01 10:35 NW 6 16.09 Fair CLR 31.6 22.7 59% 36 76.58 0.0
01 10:15 N 7 16.09 Fair CLR 31 22.9 62% 35 76.56 0.0
01 09:55 Calm 16.09 Fair CLR 30 22.9 66% 34 76.56 0.0
01 09:35 NW 6 16.09 Fair CLR 29.3 22.8 68% 33 76.56 0.0
01 09:15 Calm 16.09 Fair CLR 28.4 22.7 71% 32 76.56 0.0
01 08:55 Calm 16.09 Fair CLR 27.7 22.7 74% 31 76.56 0.0
01 08:35 Calm 16.09 Fair CLR 26.5 22.5 79% 29 76.56 0.0
01 08:15 Calm 16.09 Fair CLR 24.7 22.4 87% 25 76.56 0.0
01 07:55 Calm 16.09 Fair CLR 22.7 21.6 24.2 22 94% 76.53 0.0
01 07:35 Calm 16.09 Fair CLR 22.2 21.3 95% 76.53 0.0
01 07:15 Calm 16.09 Fair CLR 22.3 21.2 94% 76.53 0.0
01 06:55 Calm 16.09 Fair CLR 22.1 21.3 95% 76.5 0.0
01 06:35 Calm 16.09 Fair CLR 22.4 21.3 94% 76.5 0.0
01 06:15 Calm 16.09 Fair CLR 22.5 21.3 93% 76.48 0.0
01 05:55 Calm 16.09 Fair CLR 22.5 21.3 93% 76.5 0.0
01 05:35 Calm 16.09 Fair CLR 22.5 21.4 94% 76.5 0.0
01 05:15 Calm 16.09 Fair CLR 22.7 21.4 92% 76.5 0.0
01 04:55 Calm 16.09 Fair CLR 23 21.6 92% 76.5 0.0
01 04:35 Calm 16.09 Fair CLR 23 21.7 92% 76.5 0.0
01 04:15 SW 6 16.09 Fair CLR 22.8 21.8 94% 76.5 0.0
01 03:55 Calm 16.09 Fair CLR 22.6 22 96% 76.5 0.0
01 03:35 Calm 16.09 Fair CLR 22.5 22.2 98% 76.53 0.0
01 03:15 Calm 16.09 Fair CLR 22.5 22.2 98% 76.53 0.0
01 02:55 Calm 16.09 Partly Cloudy SCT090 22.8 22.1 96% 76.53 0.0
01 02:35 Calm 16.09 Mostly Cloudy BKN090 23.5 22.5 94% 76.56 0.0
01 02:15 Calm 16.09 Overcast OVC090 23.9 22.3 91% 23 76.56 0.0
01 01:55 Calm 16.09 Overcast OVC090 24.1 22.6 28.8 24 91% 24 76.56 0.0
01 01:35 Calm 16.09 Overcast SCT070 OVC090 24.2 22.7 91% 24 76.56 0.0
01 01:15 Calm 16.09 Overcast BKN070 OVC100 24.5 22.5 89% 25 76.58 0.0
01 00:55 Calm 16.09 Overcast OVC100 24 22.7 92% 23 76.58 0.0
01 00:35 Calm 16.09 Mostly Cloudy BKN100 24.3 22.5 90% 24 76.58 0.0
01 00:15 Calm 16.09 Mostly Cloudy BKN090 BKN120 24.7 22.5 88% 25 76.58 0.0
31 23:55 Calm 16.09 Overcast OVC100 25 22.6 87% 26 76.58 0.0
31 23:35 Calm 16.09 Overcast BKN060 OVC110 25.2 22.7 86% 26 76.56 0.0
31 23:15 N 11 16.09 Overcast OVC060 25.3 22 82% 26 76.58 0.0
31 22:55 Calm 16.09 Mostly Cloudy BKN060 BKN070 BKN095 25.5 22.1 82% 27 76.56 0.0
31 22:35 Calm 16.09 Overcast BKN070 OVC095 25.8 22 80% 27 76.56 0.0
31 22:15 Calm 16.09 Mostly Cloudy BKN070 BKN095 25.5 22.2 82% 27 76.56 0.0
31 21:55 Calm 16.09 Partly Cloudy SCT095 SCT120 25.2 22.1 83% 26 76.56 0.0
31 21:35 Calm 16.09 Mostly Cloudy SCT075 SCT095 BKN120 25.3 22.3 84% 26 76.56 0.0
31 21:15 Calm 16.09 Overcast BKN075 OVC085 25.9 22.5 82% 28 76.56 0.0
31 20:55 Calm 16.09 Overcast SCT027 OVC085 26.7 22.5 78% 29 76.56 0.0
31 20:35 N 13 16.09 Overcast OVC095 28 22 70% 31 76.53 0.0
31 20:15 Calm 16.09 Overcast BKN095 OVC110 28 21.3 67% 30 76.5 0.0
31 19:55 Calm 16.09 Mostly Cloudy SCT080 BKN100 28.7 21.2 34.9 28.6 64% 31 76.5 0.0
31 19:35 Calm 16.09 Partly Cloudy SCT080 29.7 21.3 61% 32 76.5 0.0
31 19:15 Calm 16.09 Fair CLR 30.6 21.1 57% 33 76.5 0.0
31 18:55 SE 6 16.09 Partly Cloudy SCT070 32.2 20.2 49% 35 76.5 0.0
31 18:35 Calm 16.09 Partly Cloudy SCT070 SCT110 33.6 19.2 43% 35 76.48 0.0
31 18:15 SW 7 16.09 Fair CLR 33.6 19.2 43% 35 76.48 0.0
31 17:55 SW 7 16.09 Fair CLR 33.9 19.5 43% 36 76.48 0.0
31 17:35 S 9 16.09 Partly Cloudy SCT120 34 19.2 42% 36 76.5 0.0
31 17:15 SW 9 16.09 Mostly Cloudy BKN120 33.9 19.7 43% 36 76.5 0.0
31 16:35 S 9 16.09 Mostly Cloudy BKN120 33.1 20.2 47% 36 76.5 0.0
31 16:15 S 11 16.09 Mostly Cloudy BKN120 32.9 20.2 47% 35 76.5 0.0
31 15:55 S 9 16.09 Overcast OVC110 33.2 20 46% 36 76.5 0.0
31 15:35 S 11 16.09 Mostly Cloudy SCT090 BKN110 33.6 20.2 45% 36 76.53 0.0
31 15:15 S 11 16.09 Mostly Cloudy BKN110 34 20.1 44% 37 76.53 0.0
31 14:55 S 9 16.09 Overcast SCT060 SCT080 OVC120 34.2 21 46% 38 76.56 0.0
31 14:35 S 7 16.09 Overcast BKN060 BKN080 OVC100 33.2 20.6 48% 36 76.56 0.0
31 14:15 Calm 16.09 Mostly Cloudy BKN060 BKN080 33 20 46% 35 76.56 0.0
31 13:35 Calm 16.09 Partly Cloudy SCT055 SCT080 SCT110 34.6 19.9 42% 37 76.58 0.0
31 13:15 S 9 16.09 Partly Cloudy SCT055 34.7 20 42% 37 76.61 0.0
31 12:55 SW 7 16.09 Partly Cloudy SCT050 34 19.9 43% 36 76.61 0.0
31 12:35 SW 9 16.09 Partly Cloudy SCT050 33.8 20.5 46% 37 76.61 0.0
31 12:15 Calm 16.09 Fair CLR 32.9 20.5 48% 36 76.63 0.0
31 11:55 Calm 16.09 Fair CLR 32.1 21.2 53% 35 76.66 0.0
31 11:35 W 6 16.09 Fair CLR 31.6 21.3 54% 35 76.66 0.0
31 11:15 S 6 16.09 Fair CLR 31.2 21.9 58% 35 76.68 0.0
31 10:55 Calm 16.09 Fair CLR 30.6 21.9 60% 34 76.68 0.0
31 10:35 Calm 16.09 Fair CLR 29.6 22.2 64% 33 76.68 0.0
31 10:15 Calm 16.09 Fair CLR 29.2 22.4 67% 33 76.66 0.0
31 09:55 W 6 16.09 Fair CLR 28.2 22.3 70% 31 76.66 0.0
31 09:35 W 6 16.09 Fair CLR 27.6 22.2 72% 30 76.66 0.0
31 09:15 W 11 16.09 Fair CLR 26.9 22 75% 29 76.66 0.0
31 08:55 W 9 16.09 Fair CLR 25.8 21.8 79% 27 76.66 0.0
31 08:35 W 7 16.09 Fair CLR 25 22.2 85% 26 76.66 0.0
31 08:15 Calm 16.09 Fair CLR 23.3 22.6 96% 76.66 0.0
31 07:55 Calm 16.09 Partly Cloudy SCT085 21.5 21.3 21.5 19.6 99% 76.66 0.0
31 07:35 Calm 16.09 Partly Cloudy SCT085 21 20.8 99% 76.66 0.0
31 07:15 Calm 16.09 Fair CLR 21 20.7 98% 76.66 0.0
31 06:55 Calm 11.27 Fair CLR 20.8 20.6 99% 76.66 0.0
31 06:35 Calm 8.05 Fair CLR 20.2 20 99% 76.63 0.0
31 06:15 Calm 11.27 Fair CLR 20.3 20 98% 76.61 0.0
31 05:55 Calm 11.27 Partly Cloudy SCT120 20.3 20.1 99% 76.63 0.0
31 05:35 Calm 11.27 Partly Cloudy SCT110 20.2 20 99% 76.63 0.0
31 05:15 Calm 11.27 Fair CLR 20.7 20.5 99% 76.63 0.0
31 04:55 Calm 16.09 Partly Cloudy SCT120 19.9 19.6 98% 76.63 0.0
31 04:35 Calm 16.09 Partly Cloudy SCT120 20.1 19.9 99% 76.63 0.0
31 04:15 Calm 16.09 Fair CLR 19.9 19.6 98% 76.63 0.0
31 03:55 Calm 16.09 Fair CLR 20.6 20.3 98% 76.63 0.0
31 03:35 Calm 16.09 Fair CLR 20.8 20.6 99% 76.63 0.0
31 03:15 Calm 16.09 Fair CLR 20.6 20.4 99% 76.63 0.0
31 02:55 Calm 16.09 Fair CLR 20.2 20 99% 76.63 0.0
31 02:35 Calm 16.09 Fair CLR 19.9 19.6 98% 76.63 0.0
31 02:15 Calm 16.09 Fair CLR 20.1 19.8 98% 76.63 0.0
31 01:55 Calm 16.09 Fair CLR 20.7 20.3 26.6 19.9 98% 76.66 0.0
31 01:35 Calm 16.09 Fair CLR 20.1 19.8 98% 76.66 0.0
31 01:15 Calm 16.09 Fair CLR 20.3 20 98% 76.66 0.0
31 00:55 Calm 16.09 Fair CLR 21 20.6 98% 76.68 0.0
31 00:35 Calm 16.09 Fair CLR 20.3 19.9 98% 76.66 0.0
31 00:15 Calm 16.09 Fair CLR 20.9 20.5 98% 76.66 0.0
30 23:55 Calm 16.09 Fair CLR 21 20.4 96% 76.68 0.0
30 23:35 Calm 16.09 Fair CLR 21.2 20.4 95% 76.68 0.0
30 23:15 Calm 16.09 Fair CLR 21.4 20.4 94% 76.68 0.0
30 22:55 Calm 16.09 Fair CLR 21.5 20.8 96% 76.68 0.0
30 22:35 Calm 16.09 Fair CLR 22 20.7 92% 76.68 0.0
30 22:15 Calm 16.09 Fair CLR 22.1 20 88% 76.68 0.0
30 21:35 Calm 16.09 Fair CLR 23.2 21 88% 76.68 0.0
30 21:15 Calm 16.09 Fair CLR 23.6 20.9 85% 76.68 0.0
30 20:55 Calm 16.09 Fair CLR 24.4 21.1 82% 25 76.66 0.0
30 20:35 Calm 16.09 Fair CLR 25 21.5 81% 26 76.66 0.0
30 20:15 Calm 16.09 Fair CLR 25.9 21.5 77% 27 76.63 0.0
30 19:55 Calm 16.09 Fair CLR 26.8 21.5 32.3 26.8 73% 29 76.63 0.0
30 19:35 Calm 16.09 Fair CLR 28 21.2 67% 30 76.63 0.0
30 19:15 S 6 16.09 Fair CLR 29 21 62% 31 76.63 0.0
30 18:55 S 11 16.09 Fair CLR 30 20.9 58% 32 76.63 0.0
30 18:35 S 11 16.09 Fair CLR 30.3 20.9 57% 33 76.66 0.0
30 18:15 S 9 16.09 Fair CLR 30.7 20.5 55% 33 76.63 0.0
30 17:55 S 13 16.09 Fair CLR 30.9 20.4 54% 33 76.63 0.0
30 17:35 S 7 16.09 Fair CLR 31 19.8 51% 33 76.63 0.0
30 17:15 SE 7 16.09 Fair CLR 31 20 52% 33 76.63 0.0
30 16:55 S 7 16.09 Fair CLR 31.4 20.3 52% 34 76.63 0.0
30 16:35 S 11 16.09 Fair CLR 31.2 20.4 53% 34 76.66 0.0
30 16:15 SW 7 16.09 Fair CLR 31.3 19.7 50% 33 76.66 0.0
30 15:55 SE 7 16.09 Fair CLR 31.4 20.1 51% 34 76.68 0.0
30 15:35 S 9 16.09 Fair CLR 32.1 20.6 51% 35 76.68 0.0
30 15:15 S 9 16.09 Partly Cloudy SCT041 31.1 20.6 54% 34 76.71 0.0
30 14:35 SW 6 16.09 Fair CLR 31 20.7 54% 33 76.76 0.0
30 14:15 Calm 16.09 Fair CLR 29.9 20.9 59% 32 76.76 0.0
30 13:55 Calm 16.09 Fair CLR 29.8 20.5 30.2 21.4 57% 32 76.78 0.0
30 13:35 Calm 16.09 Partly Cloudy SCT034 28.8 20.5 61% 31 76.81 0.0
Date Time (edt) Wind (kph) Vis. (km) Weather Sky Cond. Air Dwpt Max. Min. Relative Humidity Wind Chill (°C) Heat Index (°C) altimeter (cm) sea level (mb) 1 hr 3 hr 6 hr
6 hour
Temperature (ºC) Pressure Precipitation (cm)